createdAt,value
2022-12-15T00:03:54.461Z,20.8
2022-12-15T00:08:56.821Z,20.4
2022-12-15T00:13:58.855Z,19.8
2022-12-15T00:19:00.951Z,20.3
2022-12-15T00:24:02.948Z,21.4
2022-12-15T00:29:05.034Z,20.5
2022-12-15T00:34:07.267Z,21.4
2022-12-15T00:39:09.526Z,19.5
2022-12-15T00:44:14.475Z,20.1
2022-12-15T00:49:12.352Z,20.6
2022-12-15T00:54:17.983Z,20.2
2022-12-15T00:59:20.469Z,19.7
2022-12-15T01:04:22.532Z,19.5
2022-12-15T01:09:25.005Z,20.6
2022-12-15T01:14:28.177Z,20.2
2022-12-15T01:19:30.125Z,22.2
2022-12-15T01:24:32.217Z,20.8
2022-12-15T01:29:34.480Z,21.9
2022-12-15T01:34:36.502Z,22.7
2022-12-15T01:39:38.626Z,35.4
2022-12-15T01:44:40.578Z,31.5
2022-12-15T01:49:42.522Z,31.8
2022-12-15T01:54:45.651Z,30.4
2022-12-15T01:59:50.765Z,28.8
2022-12-15T02:04:52.893Z,30.5
2022-12-15T02:09:53.833Z,32.1
2022-12-15T02:14:55.827Z,33.1
2022-12-15T02:19:58.010Z,34.4
2022-12-15T02:25:00.396Z,34.1
2022-12-15T02:30:02.462Z,36.1
2022-12-15T02:35:04.583Z,34.8
2022-12-15T02:40:06.756Z,35.2
2022-12-15T02:45:08.748Z,37.4
2022-12-15T02:50:11.005Z,61.5
2022-12-15T02:55:11.498Z,35.9
2022-12-15T03:00:13.699Z,33.7
2022-12-15T03:05:15.865Z,35.4
2022-12-15T03:10:17.994Z,34.6
2022-12-15T03:15:19.945Z,35.3
2022-12-15T03:20:21.954Z,32.3
2022-12-15T03:25:24.194Z,33.1
2022-12-15T03:30:29.236Z,34.4
2022-12-15T03:35:32.163Z,33
2022-12-15T03:40:34.815Z,31.1
2022-12-15T03:45:36.842Z,33.5
2022-12-15T03:50:39.059Z,32.8
2022-12-15T03:55:41.307Z,30.5
2022-12-15T04:00:43.234Z,30.1
2022-12-15T04:05:45.164Z,30.4
2022-12-15T04:10:47.286Z,30.1
2022-12-15T04:15:49.375Z,29
2022-12-15T04:20:51.428Z,30.1
2022-12-15T04:25:55.863Z,30.2
2022-12-15T04:30:58.179Z,29.8
2022-12-15T04:36:00.792Z,30.4
2022-12-15T04:41:03.329Z,28.7
2022-12-15T04:46:05.342Z,29.8
2022-12-15T04:51:07.608Z,30.6
2022-12-15T04:56:12.532Z,27.4
2022-12-15T05:01:10.269Z,41.9
2022-12-15T05:06:12.402Z,27.3
2022-12-15T05:11:14.644Z,26.5
2022-12-15T05:16:16.720Z,28.1
2022-12-15T05:21:18.976Z,26.9
2022-12-15T05:26:21.064Z,28.3
2022-12-15T05:31:23.358Z,29.3
2022-12-15T05:36:25.783Z,31.1
2022-12-15T05:41:27.792Z,32.9
2022-12-15T05:46:30.122Z,35.3
2022-12-15T05:51:33.870Z,34.9
2022-12-15T05:56:35.895Z,31.3
2022-12-15T06:01:37.983Z,36.8
2022-12-15T06:06:40.441Z,36.1
2022-12-15T06:11:42.668Z,37.5
2022-12-15T06:16:50.560Z,36.8
2022-12-15T06:21:50.172Z,39.4
2022-12-15T06:26:52.634Z,43.5
2022-12-15T06:31:54.658Z,43
2022-12-15T06:36:57.236Z,46.7
2022-12-15T06:41:59.525Z,49
2022-12-15T06:47:06.552Z,46.8
2022-12-15T06:52:09.828Z,68.8
2022-12-15T06:57:18.203Z,63.9
2022-12-15T07:02:25.268Z,64.6
2022-12-15T07:07:21.698Z,57.3
2022-12-15T07:12:26.643Z,66.1
2022-12-15T07:17:29.027Z,64.6
2022-12-15T07:22:31.095Z,73.2
2022-12-15T07:27:33.457Z,70.1
2022-12-15T07:32:35.447Z,128.7
2022-12-15T07:37:35.934Z,75.8
2022-12-15T07:42:37.919Z,76.7
2022-12-15T07:47:39.930Z,72.1
2022-12-15T07:52:41.888Z,74.7
2022-12-15T07:57:43.993Z,74.2
2022-12-15T08:02:46.295Z,76.1
2022-12-15T08:07:53.447Z,81.8
2022-12-15T08:12:55.467Z,76.4
2022-12-15T08:17:57.466Z,71.4
2022-12-15T08:22:59.625Z,72.4
2022-12-15T08:28:01.704Z,71.9
2022-12-15T08:33:03.804Z,89.2
2022-12-15T08:38:06.053Z,81.7
2022-12-15T08:43:08.332Z,85.5
2022-12-15T08:48:10.372Z,84.5
2022-12-15T08:53:30.568Z,82.1
2022-12-15T08:58:14.181Z,75.2
2022-12-15T09:03:16.419Z,75.8
2022-12-15T09:08:19.318Z,71.8
2022-12-15T09:13:21.745Z,73
2022-12-15T09:18:24.045Z,68.4
2022-12-15T09:23:26.551Z,70.5
2022-12-15T09:28:30.640Z,66.1
2022-12-15T09:33:33.026Z,69.2
2022-12-15T09:38:36.480Z,65.1
2022-12-15T09:43:43.077Z,60.4
2022-12-15T09:48:40.393Z,65.5
2022-12-15T09:53:54.458Z,61.2
2022-12-15T09:58:50.571Z,56.2
2022-12-15T10:03:53.498Z,54.9
2022-12-15T10:08:57.001Z,49.1
2022-12-15T10:13:59.348Z,50.7
2022-12-15T10:19:02.229Z,47.5
2022-12-15T10:24:05.006Z,48.6
2022-12-15T10:29:07.876Z,42.1
2022-12-15T10:34:10.014Z,37.1
2022-12-15T10:39:16.139Z,42.2
2022-12-15T10:44:19.564Z,33.7
2022-12-15T10:49:25.601Z,32.8
2022-12-15T10:54:27.743Z,33.8
2022-12-15T10:59:29.899Z,33.9
2022-12-15T11:04:32.007Z,34.7
2022-12-15T11:09:34.819Z,32.4
2022-12-15T11:14:37.035Z,29
2022-12-15T11:19:40.203Z,27.7
2022-12-15T11:24:43.101Z,27.5
2022-12-15T11:29:50.362Z,25.1
2022-12-15T11:34:52.457Z,28.6
2022-12-15T11:39:55.080Z,27.3
2022-12-15T11:44:57.374Z,28.3
2022-12-15T11:49:59.675Z,29.9
2022-12-15T11:55:04.501Z,29.4
2022-12-15T12:00:06.948Z,29.4
2022-12-15T12:05:09.203Z,30.1
2022-12-15T12:10:11.371Z,30.6
2022-12-15T12:15:13.482Z,35
2022-12-15T12:20:15.574Z,34.3
2022-12-15T12:25:17.711Z,34.1
2022-12-15T12:30:20.944Z,33.7
2022-12-15T12:35:29.999Z,32.5
2022-12-15T12:40:25.229Z,36.2
2022-12-15T12:45:27.673Z,38.2
2022-12-15T12:50:29.651Z,41.1
2022-12-15T12:55:31.709Z,41.1
2022-12-15T13:00:34.260Z,35.6
2022-12-15T13:05:37.313Z,33.2
2022-12-15T13:10:39.706Z,31.3
2022-12-15T13:15:41.684Z,31.9
2022-12-15T13:20:45.496Z,29.9
2022-12-15T13:25:55.811Z,28.4
2022-12-15T13:31:04.530Z,29.9
2022-12-15T13:36:08.297Z,28.3
2022-12-15T13:41:10.327Z,30.1
2022-12-15T13:46:12.459Z,32.1
2022-12-15T13:51:15.324Z,32.2
2022-12-15T13:56:17.450Z,35.9
2022-12-15T14:01:19.716Z,36.2
2022-12-15T14:06:19.929Z,39.9
2022-12-15T14:11:46.374Z,41.2
2022-12-15T14:16:25.741Z,40.8
2022-12-15T14:21:28.058Z,41.3
2022-12-15T14:26:31.021Z,42.2
2022-12-15T14:31:33.304Z,40.4
2022-12-15T14:36:35.953Z,37
2022-12-15T14:41:38.388Z,36.3
2022-12-15T14:46:40.741Z,40.3
2022-12-15T14:51:42.863Z,59.9
2022-12-15T14:56:44.945Z,53.9
2022-12-15T15:01:47.183Z,45.6
2022-12-15T15:06:52.187Z,33.2
2022-12-15T15:11:54.750Z,36.6
2022-12-15T15:16:56.927Z,44
2022-12-15T15:21:59.497Z,42.6
2022-12-15T15:27:02.075Z,41.2
2022-12-15T15:32:04.581Z,41.2
2022-12-15T15:37:06.632Z,43.3
2022-12-15T15:42:12.306Z,45.6
2022-12-15T15:47:14.883Z,47.8
2022-12-15T15:52:17.156Z,50.8
2022-12-15T15:57:19.381Z,51.7
2022-12-15T16:02:21.555Z,45.7
2022-12-15T16:07:24.790Z,42.5
2022-12-15T16:12:26.838Z,40.6
2022-12-15T16:17:29.085Z,43.4
2022-12-15T16:22:31.085Z,43.8
2022-12-15T16:27:33.091Z,39
2022-12-15T16:32:35.187Z,42
2022-12-15T16:37:39.570Z,45.6
2022-12-15T16:42:42.299Z,44.3
2022-12-15T16:47:44.660Z,48.5
2022-12-15T16:52:46.769Z,49.6
2022-12-15T16:57:49.124Z,50.5
2022-12-15T17:02:51.633Z,52.6
2022-12-15T17:07:54.998Z,47.4
2022-12-15T17:12:57.262Z,45.5
2022-12-15T17:17:59.368Z,45.8
2022-12-15T17:23:01.398Z,48.6
2022-12-15T17:28:03.523Z,43.7
2022-12-15T17:33:05.860Z,46
2022-12-15T17:38:08.043Z,48.8
2022-12-15T17:43:10.153Z,49.6
2022-12-15T17:48:12.268Z,47.4
2022-12-15T17:53:14.360Z,47.3
2022-12-15T17:58:16.458Z,49.3
2022-12-15T18:03:18.589Z,45.5
2022-12-15T18:08:22.982Z,47.2
2022-12-15T18:13:26.824Z,51
2022-12-15T18:18:26.291Z,56.1
2022-12-15T18:23:28.557Z,59.2
2022-12-15T18:28:32.836Z,61.2
2022-12-15T18:33:35.256Z,55
2022-12-15T18:38:38.086Z,56
2022-12-15T18:43:40.223Z,54.5
2022-12-15T18:48:42.323Z,52.2
2022-12-15T18:53:44.605Z,55.3
2022-12-15T18:58:46.624Z,59.6
2022-12-15T19:03:48.640Z,59.6
2022-12-15T19:08:50.754Z,61.3
2022-12-15T19:13:52.860Z,61
2022-12-15T19:18:54.949Z,65.1
2022-12-15T19:23:57.466Z,67.6
2022-12-15T19:28:59.654Z,64.7
2022-12-15T19:34:03.055Z,73.7
2022-12-15T19:39:05.915Z,85.9
2022-12-15T19:44:08.136Z,79.1
2022-12-15T19:49:13.180Z,94.3
2022-12-15T19:54:20.836Z,87.2
2022-12-15T19:59:23.314Z,95.9
2022-12-15T20:04:25.577Z,95.1
2022-12-15T20:09:28.859Z,101.5
2022-12-15T20:14:33.939Z,84.6
2022-12-15T20:19:38.320Z,91.8
2022-12-15T20:24:40.461Z,112.8
2022-12-15T20:29:42.610Z,121.8
2022-12-15T20:34:45.139Z,97.9
2022-12-15T20:39:50.335Z,107.3
2022-12-15T20:44:49.279Z,96.6
2022-12-15T20:49:54.053Z,86.1
2022-12-15T20:54:56.225Z,95.5
2022-12-15T20:59:58.343Z,107
2022-12-15T21:05:00.549Z,108.8
2022-12-15T21:10:02.711Z,94.2
2022-12-15T21:15:04.826Z,101.7
2022-12-15T21:20:07.050Z,93.2
2022-12-15T21:25:09.438Z,88.6
2022-12-15T21:30:11.882Z,76.2
2022-12-15T21:35:14.191Z,92.5
2022-12-15T21:40:19.339Z,78.2
2022-12-15T21:45:21.818Z,89.4
2022-12-15T21:50:24.487Z,66.3
2022-12-15T21:55:28.939Z,72.5
2022-12-15T22:00:31.173Z,67.2
2022-12-15T22:05:33.905Z,77.5
2022-12-15T22:10:36.206Z,75.2
2022-12-15T22:15:38.538Z,72.5
2022-12-15T22:20:41.277Z,107.9
2022-12-15T22:25:43.567Z,79.5
2022-12-15T22:30:45.676Z,73
2022-12-15T22:35:48.370Z,73.1
2022-12-15T22:40:51.362Z,73.6
2022-12-15T22:45:55.443Z,75
2022-12-15T22:50:58.236Z,75
2022-12-15T22:56:00.239Z,79.1
2022-12-15T23:01:02.393Z,78.2
2022-12-15T23:06:04.396Z,83.5
2022-12-15T23:11:06.540Z,77.5
2022-12-15T23:16:08.637Z,79.1
2022-12-15T23:21:10.984Z,71.8
2022-12-15T23:26:12.962Z,72.5
2022-12-15T23:31:15.155Z,70.9
2022-12-15T23:36:18.134Z,69.5
2022-12-15T23:41:20.381Z,68.1
2022-12-15T23:46:22.428Z,64.4
2022-12-15T23:51:24.647Z,62.7
2022-12-15T23:56:26.599Z,60.2
